Time;durP1;ratioP1;P1;durP2;ratioP2;P2;SDS_P1;SDS_P2;PMS_P1;PMS_P2;Temp;Humidity;BMP_temperature;BMP_pressure;BME280_temperature;BME280_humidity;BME280_pressure;Samples;Min_cycle;Max_cycle;Signal;HPM_P1;HPM_P2
2023/08/08 00:01:58;;;;;;;8.10;5.13;;;13.40;99.90;;;;;;7379528;19;20335;-62
2023/08/08 00:04:27;;;;;;;7.95;5.22;;;13.40;99.90;;;;;;7378008;19;20022;-63
2023/08/08 00:06:53;;;;;;;8.93;5.60;;;13.40;99.90;;;;;;7368940;19;20685;-62
2023/08/08 00:09:20;;;;;;;9.15;5.72;;;13.30;99.90;;;;;;7374504;19;20602;-63
2023/08/08 00:11:46;;;;;;;9.32;5.70;;;13.40;99.90;;;;;;7372525;19;20015;-63
2023/08/08 00:14:12;;;;;;;10.10;5.88;;;13.30;99.90;;;;;;7377526;19;20109;-62
2023/08/08 00:16:39;;;;;;;8.68;6.20;;;13.40;99.90;;;;;;7380458;19;20018;-63
2023/08/08 00:19:05;;;;;;;7.65;5.55;;;13.40;99.90;;;;;;7377435;19;20030;-62
2023/08/08 00:21:32;;;;;;;8.10;5.88;;;13.40;99.90;;;;;;7377416;19;20022;-62
2023/08/08 00:23:58;;;;;;;8.02;6.38;;;13.40;99.90;;;;;;7375492;19;20021;-63
2023/08/08 00:26:24;;;;;;;13.98;6.30;;;13.40;99.90;;;;;;7380337;19;20370;-57
2023/08/08 00:28:50;;;;;;;8.23;6.43;;;13.40;99.90;;;;;;7376518;19;20029;-58
2023/08/08 00:31:19;;;;;;;9.90;6.47;;;13.40;99.90;;;;;;7374902;19;20546;-57
2023/08/08 00:33:45;;;;;;;8.30;5.20;;;13.40;99.90;;;;;;7377155;19;20524;-57
2023/08/08 00:36:12;;;;;;;7.30;5.90;;;13.40;99.90;;;;;;7376924;19;20021;-58
2023/08/08 00:38:38;;;;;;;10.68;5.90;;;13.40;99.90;;;;;;7377235;19;20026;-57
2023/08/08 00:41:04;;;;;;;10.88;6.68;;;13.40;99.90;;;;;;7374528;19;20018;-57
2023/08/08 00:43:30;;;;;;;10.02;5.93;;;13.40;99.90;;;;;;7377471;19;20017;-58
2023/08/08 00:45:57;;;;;;;11.57;6.30;;;13.40;99.90;;;;;;7376757;19;20043;-58
2023/08/08 00:48:24;;;;;;;9.23;6.90;;;13.40;99.90;;;;;;7376047;19;20011;-58
2023/08/08 00:50:52;;;;;;;6.88;6.18;;;13.50;99.90;;;;;;7380427;19;20019;-57
2023/08/08 00:53:23;;;;;;;9.82;6.53;;;13.50;99.90;;;;;;7374931;19;20021;-57
2023/08/08 00:55:49;;;;;;;8.50;6.20;;;13.50;99.90;;;;;;7377204;19;20040;-56
2023/08/08 00:58:17;;;;;;;8.63;6.65;;;13.50;99.90;;;;;;7377845;19;20017;-57
2023/08/08 01:00:46;;;;;;;9.05;6.22;;;13.50;99.90;;;;;;7377915;19;20018;-56
2023/08/08 01:03:12;;;;;;;10.65;6.43;;;13.50;99.90;;;;;;7375145;19;20376;-56
2023/08/08 01:05:47;;;;;;;9.48;6.43;;;13.50;99.90;;;;;;7378180;19;20057;-57
2023/08/08 01:08:18;;;;;;;9.30;6.35;;;13.50;99.90;;;;;;7378498;19;20018;-62
2023/08/08 01:10:44;;;;;;;11.00;7.15;;;13.50;99.90;;;;;;7378145;19;20025;-63
2023/08/08 01:13:17;;;;;;;10.38;7.03;;;13.50;99.90;;;;;;7377212;19;20014;-63
2023/08/08 01:15:46;;;;;;;13.10;6.88;;;13.50;99.90;;;;;;7376793;19;20010;-62
2023/08/08 01:18:14;;;;;;;11.27;6.65;;;13.60;99.90;;;;;;7372056;19;20018;-63
2023/08/08 01:20:42;;;;;;;8.82;6.60;;;13.60;99.90;;;;;;7374693;19;20397;-62
2023/08/08 01:23:34;;;;;;;11.23;6.97;;;13.50;99.90;;;;;;7375394;19;20019;-63
2023/08/08 01:26:01;;;;;;;10.57;7.05;;;13.60;99.90;;;;;;7374713;19;20023;-62
2023/08/08 01:28:27;;;;;;;12.75;7.20;;;13.60;99.90;;;;;;7376815;19;20490;-62
2023/08/08 01:30:53;;;;;;;9.40;6.97;;;13.60;99.90;;;;;;7375086;19;20449;-56
2023/08/08 01:33:20;;;;;;;8.50;6.63;;;13.50;99.90;;;;;;7376290;19;20484;-58
2023/08/08 01:35:54;;;;;;;11.23;7.60;;;13.60;99.90;;;;;;7374330;19;20407;-57
2023/08/08 01:38:40;;;;;;;10.60;7.43;;;13.60;99.90;;;;;;7375056;19;20873;-62
2023/08/08 01:41:08;;;;;;;9.18;7.22;;;13.50;99.90;;;;;;7370021;19;20512;-62
2023/08/08 01:43:36;;;;;;;10.05;7.30;;;13.60;99.90;;;;;;7368054;19;20027;-62
2023/08/08 01:46:03;;;;;;;9.57;6.93;;;13.60;99.90;;;;;;7374066;19;20015;-62
2023/08/08 01:48:30;;;;;;;10.30;6.38;;;13.50;99.90;;;;;;7375609;19;20014;-62
2023/08/08 01:50:56;;;;;;;10.48;6.55;;;13.60;99.90;;;;;;7373634;19;20053;-62
2023/08/08 01:53:22;;;;;;;8.15;6.95;;;13.60;99.90;;;;;;7374384;19;20022;-57
2023/08/08 01:55:49;;;;;;;9.25;6.95;;;13.60;99.90;;;;;;7371753;19;20029;-57
2023/08/08 01:58:15;;;;;;;8.07;6.20;;;13.60;99.90;;;;;;7372996;19;20035;-57
2023/08/08 02:00:43;;;;;;;8.32;6.43;;;13.60;99.90;;;;;;7373987;19;20019;-62
2023/08/08 02:03:10;;;;;;;7.88;6.22;;;13.60;99.90;;;;;;7372937;19;20300;-62
2023/08/08 02:05:37;;;;;;;10.98;6.40;;;13.60;99.90;;;;;;7376129;19;20018;-65
2023/08/08 02:08:03;;;;;;;7.40;6.40;;;13.70;99.90;;;;;;7375846;19;20563;-63
2023/08/08 02:10:31;;;;;;;10.05;6.03;;;13.60;99.90;;;;;;7373650;19;20479;-62
2023/08/08 02:12:57;;;;;;;10.23;6.15;;;13.60;99.90;;;;;;7373667;19;20022;-63
2023/08/08 02:15:23;;;;;;;7.05;6.03;;;13.70;99.90;;;;;;7371847;19;20089;-63
2023/08/08 02:17:50;;;;;;;9.70;6.47;;;13.70;99.90;;;;;;7376937;19;20018;-62
2023/08/08 02:20:18;;;;;;;9.65;5.85;;;13.70;99.90;;;;;;7373246;19;20021;-57
2023/08/08 02:22:44;;;;;;;10.35;5.63;;;13.70;99.90;;;;;;7372120;19;20038;-62
2023/08/08 02:25:11;;;;;;;12.55;6.82;;;13.70;99.90;;;;;;7372670;19;20022;-62
2023/08/08 02:27:37;;;;;;;12.15;6.80;;;13.70;99.90;;;;;;7372780;19;20019;-57
2023/08/08 02:30:04;;;;;;;8.43;6.25;;;13.70;99.90;;;;;;7374426;19;20468;-57
2023/08/08 02:32:30;;;;;;;13.23;6.82;;;13.70;99.90;;;;;;7369429;19;20030;-57
2023/08/08 02:34:57;;;;;;;12.15;6.82;;;13.70;99.90;;;;;;7373606;19;20022;-57
2023/08/08 02:37:24;;;;;;;13.88;7.45;;;13.70;99.90;;;;;;7371353;19;20490;-58
2023/08/08 02:39:50;;;;;;;9.93;6.47;;;13.60;99.90;;;;;;7372268;19;20356;-57
2023/08/08 02:42:17;;;;;;;10.10;6.68;;;13.60;99.90;;;;;;7372373;19;20025;-62
2023/08/08 02:44:44;;;;;;;14.02;7.38;;;13.60;99.90;;;;;;7371510;19;20078;-62
2023/08/08 02:47:10;;;;;;;11.05;6.47;;;13.60;99.90;;;;;;7372277;19;20494;-62
2023/08/08 02:49:36;;;;;;;13.73;6.85;;;13.60;99.90;;;;;;7372305;19;20029;-57
2023/08/08 02:52:03;;;;;;;12.43;7.43;;;13.60;99.90;;;;;;7371451;19;20462;-62
2023/08/08 02:54:32;;;;;;;10.00;6.40;;;13.60;99.90;;;;;;7373143;19;20493;-62
2023/08/08 02:57:01;;;;;;;14.57;7.57;;;13.60;99.90;;;;;;7373575;19;20026;-62
2023/08/08 02:59:29;;;;;;;12.70;7.22;;;13.60;99.90;;;;;;7375161;19;20029;-57
2023/08/08 03:01:56;;;;;;;12.60;7.90;;;13.60;99.90;;;;;;7373856;19;20106;-57
2023/08/08 03:04:22;;;;;;;13.88;7.60;;;13.60;99.90;;;;;;7372918;19;20478;-60
2023/08/08 03:06:49;;;;;;;16.63;7.50;;;13.60;99.90;;;;;;7374510;19;20073;-57
2023/08/08 03:09:16;;;;;;;12.50;7.78;;;13.50;99.90;;;;;;7371161;19;20026;-57
2023/08/08 03:11:42;;;;;;;13.00;8.23;;;13.40;99.90;;;;;;7372941;19;20042;-62
2023/08/08 03:14:12;;;;;;;11.90;8.15;;;13.40;99.90;;;;;;7370349;19;20383;-62
2023/08/08 03:16:39;;;;;;;12.00;8.30;;;13.40;99.90;;;;;;7371773;19;20022;-64
2023/08/08 03:19:07;;;;;;;11.07;7.85;;;13.30;99.90;;;;;;7370912;19;20026;-62
2023/08/08 03:21:34;;;;;;;16.45;9.15;;;13.40;99.90;;;;;;7372877;19;20021;-63
2023/08/08 03:24:02;;;;;;;15.30;8.18;;;13.30;99.90;;;;;;7370287;19;20018;-62
2023/08/08 03:26:29;;;;;;;12.05;8.85;;;13.40;99.90;;;;;;7371533;19;20018;-62
2023/08/08 03:28:55;;;;;;;14.55;9.18;;;13.30;99.90;;;;;;7380260;19;20106;-63
2023/08/08 03:31:29;;;;;;;15.02;8.75;;;13.30;99.90;;;;;;7379771;19;20494;-57
2023/08/08 03:33:56;;;;;;;18.45;9.20;;;13.30;99.90;;;;;;7382564;19;20577;-57
2023/08/08 03:36:23;;;;;;;11.40;7.75;;;13.30;99.90;;;;;;7376253;19;20577;-63
2023/08/08 03:38:50;;;;;;;15.88;8.45;;;13.30;99.90;;;;;;7379887;19;20942;-57
2023/08/08 03:41:17;;;;;;;15.73;8.52;;;13.30;99.90;;;;;;7378333;19;20066;-57
2023/08/08 03:43:44;;;;;;;12.90;8.10;;;13.30;99.90;;;;;;7378600;19;20018;-57
2023/08/08 03:46:11;;;;;;;17.80;9.13;;;13.20;99.90;;;;;;7379254;19;20018;-57
2023/08/08 03:48:38;;;;;;;12.80;8.35;;;13.20;99.90;;;;;;7377209;19;20115;-58
2023/08/08 03:51:04;;;;;;;12.48;7.80;;;13.20;99.90;;;;;;7378813;19;20024;-57
2023/08/08 03:53:30;;;;;;;16.85;8.13;;;13.10;99.90;;;;;;7379947;19;20034;-62
2023/08/08 03:55:57;;;;;;;14.02;7.85;;;13.10;99.90;;;;;;7379714;19;20391;-57
2023/08/08 03:58:23;;;;;;;13.60;7.93;;;13.10;99.90;;;;;;7375249;19;20022;-58
2023/08/08 04:00:49;;;;;;;17.17;8.65;;;13.00;99.90;;;;;;7379265;19;20446;-57
2023/08/08 04:03:16;;;;;;;15.27;7.55;;;13.00;99.90;;;;;;7376530;19;20470;-57
2023/08/08 04:05:46;;;;;;;15.05;8.27;;;12.90;99.90;;;;;;7377578;19;20014;-62
2023/08/08 04:08:16;;;;;;;13.93;7.20;;;12.90;99.90;;;;;;7374720;19;20042;-63
2023/08/08 04:10:46;;;;;;;13.60;6.97;;;12.90;99.90;;;;;;7382438;19;20392;-57
2023/08/08 04:13:13;;;;;;;12.43;6.68;;;12.80;99.90;;;;;;7379795;19;20014;-63
2023/08/08 04:15:39;;;;;;;11.90;6.40;;;12.80;99.90;;;;;;7380198;19;20044;-63
2023/08/08 04:18:06;;;;;;;10.68;5.90;;;12.80;99.90;;;;;;7376431;19;20022;-63
2023/08/08 04:20:34;;;;;;;12.50;6.32;;;12.80;99.90;;;;;;7380671;19;20367;-62
2023/08/08 04:23:01;;;;;;;9.18;5.47;;;12.70;99.90;;;;;;7379482;19;20022;-62
2023/08/08 04:25:28;;;;;;;9.07;5.90;;;12.70;99.90;;;;;;7379482;19;20593;-62
2023/08/08 04:27:54;;;;;;;11.23;5.30;;;12.70;99.90;;;;;;7380235;19;20018;-62
2023/08/08 04:30:20;;;;;;;13.38;5.43;;;12.70;99.90;;;;;;7377989;19;20395;-61
2023/08/08 04:32:47;;;;;;;15.93;4.70;;;12.70;99.90;;;;;;7377937;19;20114;-61
2023/08/08 04:35:13;;;;;;;6.30;3.83;;;12.60;99.90;;;;;;7377536;19;20022;-61
2023/08/08 04:37:39;;;;;;;14.25;4.03;;;12.60;99.90;;;;;;7376363;19;20514;-62
2023/08/08 04:40:08;;;;;;;7.18;3.60;;;12.60;99.90;;;;;;7378618;19;20548;-57
2023/08/08 04:42:34;;;;;;;8.77;3.22;;;12.70;99.90;;;;;;7382203;19;20018;-57
2023/08/08 04:45:01;;;;;;;9.45;3.95;;;12.60;99.90;;;;;;7377472;19;20625;-57
2023/08/08 04:47:27;;;;;;;10.38;3.50;;;12.60;99.90;;;;;;7375659;19;20118;-57
2023/08/08 04:49:53;;;;;;;12.55;3.08;;;12.60;99.90;;;;;;7378169;19;20396;-62
2023/08/08 04:52:20;;;;;;;7.43;2.78;;;12.70;99.90;;;;;;7373215;19;20477;-62
2023/08/08 04:54:46;;;;;;;8.65;2.90;;;12.70;99.90;;;;;;7376629;19;20047;-62
2023/08/08 04:57:12;;;;;;;7.32;3.08;;;12.80;99.90;;;;;;7377405;19;20103;-57
2023/08/08 04:59:38;;;;;;;7.15;3.17;;;12.80;99.90;;;;;;7376764;19;20023;-62
2023/08/08 05:02:05;;;;;;;8.63;2.50;;;12.90;99.90;;;;;;7376448;19;20018;-62
2023/08/08 05:04:31;;;;;;;7.50;2.17;;;12.90;99.90;;;;;;7376834;19;20018;-58
2023/08/08 05:06:57;;;;;;;6.65;2.60;;;13.00;99.90;;;;;;7376105;19;20026;-57
2023/08/08 05:09:44;;;;;;;9.38;3.10;;;13.00;99.90;;;;;;7371264;19;20505;-57
2023/08/08 05:12:10;;;;;;;7.30;2.92;;;13.10;99.90;;;;;;7362474;19;20033;-62
2023/08/08 05:14:36;;;;;;;8.02;2.72;;;13.10;99.90;;;;;;7361854;19;20035;-62
2023/08/08 05:17:03;;;;;;;9.10;2.40;;;13.30;99.90;;;;;;7373512;19;20051;-62
2023/08/08 05:19:29;;;;;;;8.18;2.42;;;13.70;99.90;;;;;;7373419;19;20022;-62
2023/08/08 05:21:56;;;;;;;7.65;2.05;;;14.10;99.90;;;;;;7373726;19;20018;-57
2023/08/08 05:24:23;;;;;;;10.30;2.53;;;14.40;99.90;;;;;;7375831;19;20021;-57
2023/08/08 05:26:49;;;;;;;4.32;1.80;;;14.50;99.90;;;;;;7373931;19;20018;-63
2023/08/08 05:29:15;;;;;;;6.43;2.22;;;14.50;99.90;;;;;;7369337;19;20565;-57
2023/08/08 05:31:41;;;;;;;5.55;2.00;;;14.50;99.90;;;;;;7376443;19;20025;-57
2023/08/08 05:34:08;;;;;;;11.88;2.08;;;14.50;99.90;;;;;;7377762;19;20022;-57
2023/08/08 05:36:34;;;;;;;8.70;1.80;;;14.40;99.90;;;;;;7373124;19;20019;-62
2023/08/08 05:39:00;;;;;;;7.50;1.55;;;14.40;99.90;;;;;;7372136;19;20042;-62
2023/08/08 05:41:26;;;;;;;8.93;2.00;;;14.30;99.90;;;;;;7374014;19;20415;-62
2023/08/08 05:43:52;;;;;;;7.50;1.88;;;14.30;99.90;;;;;;7375395;19;20103;-57
2023/08/08 05:46:18;;;;;;;6.05;1.80;;;14.30;99.90;;;;;;7374558;19;20010;-62
2023/08/08 05:48:46;;;;;;;5.03;1.90;;;14.30;99.90;;;;;;7377781;19;20583;-62
2023/08/08 05:51:12;;;;;;;6.53;1.92;;;14.30;99.90;;;;;;7374863;19;20344;-62
2023/08/08 05:53:39;;;;;;;5.60;1.90;;;14.30;99.90;;;;;;7376296;19;20010;-62
2023/08/08 05:56:05;;;;;;;4.63;1.60;;;14.20;99.90;;;;;;7378501;19;20018;-58
2023/08/08 05:58:31;;;;;;;5.35;1.60;;;14.30;99.90;;;;;;7375890;19;20510;-62
2023/08/08 06:00:57;;;;;;;7.70;1.95;;;14.10;99.90;;;;;;7377081;19;20018;-63
2023/08/08 06:03:24;;;;;;;8.05;1.95;;;14.10;99.90;;;;;;7378341;19;20496;-63
2023/08/08 06:05:50;;;;;;;5.65;1.73;;;14.00;99.90;;;;;;7378021;19;20018;-61
2023/08/08 06:08:16;;;;;;;4.20;1.52;;;14.10;99.90;;;;;;7373937;19;20098;-62
2023/08/08 06:10:42;;;;;;;3.97;1.52;;;14.40;99.90;;;;;;7373437;19;20014;-66
2023/08/08 06:13:09;;;;;;;4.03;1.35;;;14.70;99.90;;;;;;7374089;19;20019;-58
2023/08/08 06:15:35;;;;;;;7.43;2.20;;;15.00;99.90;;;;;;7374555;19;20494;-59
2023/08/08 06:18:01;;;;;;;5.63;2.13;;;15.30;99.90;;;;;;7373399;19;20014;-58
2023/08/08 06:20:28;;;;;;;7.18;1.80;;;15.50;99.90;;;;;;7375485;19;20031;-62
2023/08/08 06:22:54;;;;;;;5.43;2.05;;;15.70;99.90;;;;;;7374697;19;20410;-62
2023/08/08 06:25:21;;;;;;;7.45;1.42;;;15.90;99.90;;;;;;7368462;19;20864;-58
2023/08/08 06:27:48;;;;;;;6.22;1.67;;;16.20;99.90;;;;;;7373903;19;20037;-58
2023/08/08 06:30:14;;;;;;;4.38;1.52;;;16.30;99.90;;;;;;7372973;19;20418;-58
2023/08/08 06:32:40;;;;;;;4.85;2.28;;;16.40;99.90;;;;;;7375229;19;20019;-60
2023/08/08 06:35:07;;;;;;;6.93;1.20;;;16.60;99.90;;;;;;7375525;19;20622;-58
2023/08/08 06:37:33;;;;;;;5.90;1.65;;;16.70;99.90;;;;;;7371047;19;20026;-63
2023/08/08 06:40:00;;;;;;;4.65;1.35;;;16.80;99.90;;;;;;7374897;19;20022;-63
2023/08/08 06:42:26;;;;;;;7.70;1.50;;;16.90;99.90;;;;;;7373166;19;20015;-67
2023/08/08 06:44:57;;;;;;;6.30;1.13;;;17.00;99.90;;;;;;7374054;19;20025;-62
2023/08/08 06:47:23;;;;;;;7.20;1.75;;;17.20;99.90;;;;;;7374266;19;20018;-63
2023/08/08 06:49:52;;;;;;;5.10;1.85;;;17.30;99.90;;;;;;7372454;19;20094;-58
2023/08/08 06:52:18;;;;;;;5.90;1.40;;;17.40;99.90;;;;;;7372678;19;20859;-58
2023/08/08 06:54:45;;;;;;;8.48;1.55;;;17.40;99.90;;;;;;7374795;19;20025;-58
2023/08/08 06:57:11;;;;;;;5.53;1.30;;;17.50;99.90;;;;;;7374915;19;20042;-63
2023/08/08 06:59:41;;;;;;;5.15;1.23;;;17.70;99.90;;;;;;7370902;19;20018;-62
2023/08/08 07:02:09;;;;;;;7.68;1.63;;;17.90;99.90;;;;;;7373222;19;20015;-58
2023/08/08 07:04:36;;;;;;;8.20;2.45;;;17.90;99.90;;;;;;7373811;19;20083;-58
2023/08/08 07:07:02;;;;;;;7.05;1.35;;;18.20;99.90;;;;;;7373622;19;20090;-58
2023/08/08 07:09:29;;;;;;;7.38;2.00;;;18.30;99.90;;;;;;7371892;19;20498;-57
2023/08/08 07:11:56;;;;;;;3.67;1.25;;;18.30;99.90;;;;;;7375974;19;20421;-57
2023/08/08 07:14:22;;;;;;;5.53;1.50;;;18.40;99.90;;;;;;7374569;19;20526;-58
2023/08/08 07:16:48;;;;;;;8.50;2.97;;;18.50;99.90;;;;;;7375373;19;20015;-59
2023/08/08 07:19:15;;;;;;;6.38;1.88;;;18.50;99.90;;;;;;7370716;19;20010;-59
2023/08/08 07:21:41;;;;;;;4.75;1.20;;;18.70;99.90;;;;;;7376754;19;20081;-63
2023/08/08 07:24:09;;;;;;;6.13;1.65;;;18.60;99.90;;;;;;7369602;19;20018;-58
2023/08/08 07:26:36;;;;;;;4.95;1.20;;;18.90;99.90;;;;;;7371745;19;20045;-59
2023/08/08 07:29:05;;;;;;;3.97;1.20;;;18.80;99.90;;;;;;7370136;19;20014;-63
2023/08/08 07:31:32;;;;;;;6.10;1.15;;;19.20;99.90;;;;;;7369424;19;20022;-63
2023/08/08 07:34:02;;;;;;;5.93;1.17;;;19.20;99.90;;;;;;7374146;19;20025;-64
2023/08/08 07:36:28;;;;;;;9.70;1.55;;;19.60;99.90;;;;;;7369813;19;20025;-62
2023/08/08 07:38:59;;;;;;;5.85;1.17;;;19.70;99.90;;;;;;7373508;19;20482;-62
2023/08/08 07:41:27;;;;;;;4.18;1.00;;;19.90;99.90;;;;;;7371408;19;20045;-66
2023/08/08 07:43:53;;;;;;;3.63;1.10;;;19.80;99.90;;;;;;7372333;19;20026;-63
2023/08/08 07:46:19;;;;;;;3.83;0.98;;;19.60;99.90;;;;;;7371823;19;20030;-62
2023/08/08 07:48:46;;;;;;;4.13;0.98;;;19.90;99.90;;;;;;7370930;19;20011;-63
2023/08/08 07:51:12;;;;;;;3.65;1.30;;;20.10;99.90;;;;;;7373358;19;20022;-62
2023/08/08 07:53:38;;;;;;;5.90;1.13;;;20.00;99.90;;;;;;7371839;19;20542;-62
2023/08/08 07:56:04;;;;;;;5.70;1.52;;;19.90;99.90;;;;;;7370837;19;20410;-62
2023/08/08 07:58:32;;;;;;;6.15;1.27;;;20.00;99.90;;;;;;7370773;19;20482;-62
2023/08/08 08:00:59;;;;;;;2.90;0.90;;;19.80;99.90;;;;;;7371356;19;20014;-63
2023/08/08 08:03:27;;;;;;;3.05;0.85;;;19.70;99.90;;;;;;7370531;19;20014;-62
2023/08/08 08:05:53;;;;;;;2.78;0.70;;;19.60;99.90;;;;;;7374286;19;20014;-63
2023/08/08 08:08:21;;;;;;;3.00;1.10;;;19.00;99.90;;;;;;7368003;19;20517;-63
2023/08/08 08:10:48;;;;;;;3.08;0.88;;;18.80;99.90;;;;;;7374098;19;20082;-62
2023/08/08 08:13:14;;;;;;;4.30;1.00;;;18.50;99.90;;;;;;7373656;19;20384;-62
2023/08/08 08:15:41;;;;;;;4.75;1.00;;;18.40;99.90;;;;;;7381038;19;21330;-60
2023/08/08 08:18:07;;;;;;;4.28;1.08;;;18.50;99.90;;;;;;7377687;19;20031;-56
2023/08/08 08:20:33;;;;;;;5.38;1.02;;;18.40;99.90;;;;;;7378366;19;20022;-57
2023/08/08 08:23:00;;;;;;;2.58;0.95;;;18.60;99.90;;;;;;7379304;19;20018;-57
2023/08/08 08:25:26;;;;;;;3.92;1.40;;;18.70;99.90;;;;;;7379704;19;20029;-58
2023/08/08 08:27:53;;;;;;;6.30;1.58;;;18.60;99.90;;;;;;7378640;19;20010;-58
2023/08/08 08:30:19;;;;;;;3.88;1.10;;;18.70;99.90;;;;;;7380479;19;20022;-58
2023/08/08 08:32:46;;;;;;;3.75;1.25;;;18.70;99.90;;;;;;7380887;19;20029;-58
2023/08/08 08:35:13;;;;;;;4.13;1.00;;;18.90;99.90;;;;;;7378919;19;20014;-58
2023/08/08 08:37:39;;;;;;;4.00;0.98;;;19.00;99.90;;;;;;7377946;19;20045;-58
2023/08/08 08:40:06;;;;;;;7.15;1.20;;;18.90;99.90;;;;;;7375959;19;20052;-58
2023/08/08 08:42:33;;;;;;;2.42;0.73;;;19.00;99.90;;;;;;7375710;19;20500;-57
2023/08/08 08:45:02;;;;;;;4.88;1.40;;;18.90;99.90;;;;;;7378622;19;20014;-57
2023/08/08 08:47:31;;;;;;;3.87;1.23;;;19.10;99.90;;;;;;7376124;19;20041;-57
2023/08/08 08:50:01;;;;;;;3.63;1.27;;;19.40;99.90;;;;;;7373860;19;20082;-57
2023/08/08 08:52:28;;;;;;;6.78;1.27;;;19.50;99.90;;;;;;7375615;19;20081;-57
2023/08/08 08:54:54;;;;;;;5.97;1.35;;;19.70;99.90;;;;;;7376513;19;20132;-57
2023/08/08 08:57:24;;;;;;;5.60;1.08;;;19.40;99.90;;;;;;7377847;19;20035;-57
2023/08/08 08:59:51;;;;;;;6.05;1.52;;;19.50;99.90;;;;;;7374853;19;20018;-63
2023/08/08 09:02:18;;;;;;;4.28;1.08;;;19.50;99.90;;;;;;7376795;19;20014;-58
2023/08/08 09:04:45;;;;;;;5.47;1.60;;;19.80;99.90;;;;;;7365544;19;20470;-57
2023/08/08 09:07:12;;;;;;;4.80;1.00;;;19.80;99.90;;;;;;7370028;19;20015;-57
2023/08/08 09:09:42;;;;;;;5.78;1.27;;;19.40;99.90;;;;;;7374000;19;20025;-57
2023/08/08 09:12:08;;;;;;;5.03;0.98;;;19.50;99.90;;;;;;7377900;19;20023;-64
2023/08/08 09:14:40;;;;;;;6.78;1.35;;;19.30;99.90;;;;;;7368428;19;20442;-61
2023/08/08 09:17:10;;;;;;;;;;;19.00;99.90;;;;;;7372550;19;20018;-61
2023/08/08 09:19:36;;;;;;;4.60;1.10;;;19.10;99.90;;;;;;7374390;19;20431;-61
2023/08/08 09:22:03;;;;;;;2.83;0.90;;;19.30;99.90;;;;;;7376251;19;20029;-62
2023/08/08 09:24:29;;;;;;;4.93;0.95;;;19.10;99.90;;;;;;7360925;19;20015;-61
2023/08/08 09:26:56;;;;;;;5.20;1.08;;;19.60;99.90;;;;;;7372371;19;20118;-62
2023/08/08 09:29:23;;;;;;;3.10;1.20;;;19.90;99.90;;;;;;7372188;19;20033;-61
2023/08/08 09:31:51;;;;;;;4.47;0.80;;;20.20;99.90;;;;;;7373953;19;20056;-57
2023/08/08 09:34:17;;;;;;;3.92;1.48;;;20.30;99.90;;;;;;7375187;19;20032;-57
2023/08/08 09:36:44;;;;;;;3.80;1.05;;;19.80;99.90;;;;;;7375589;19;20507;-57
2023/08/08 09:39:10;;;;;;;5.43;1.30;;;19.30;99.90;;;;;;7374520;19;20082;-57
2023/08/08 09:41:39;;;;;;;4.25;1.38;;;18.40;99.90;;;;;;7377448;19;20403;-56
2023/08/08 09:44:05;;;;;;;3.33;1.58;;;17.80;99.90;;;;;;7374800;19;20029;-57
2023/08/08 09:46:31;;;;;;;6.03;1.40;;;17.40;99.90;;;;;;7373922;19;20019;-57
2023/08/08 09:49:02;;;;;;;4.45;1.05;;;17.30;99.90;;;;;;7371289;19;20019;-56
2023/08/08 09:51:29;;;;;;;4.72;1.60;;;17.60;99.90;;;;;;7372201;19;20098;-57
2023/08/08 09:53:56;;;;;;;5.82;1.20;;;18.40;99.90;;;;;;7374057;19;20432;-57
2023/08/08 09:56:26;;;;;;;4.70;1.33;;;18.80;99.90;;;;;;7374988;19;20014;-57
2023/08/08 09:58:53;;;;;;;4.70;1.15;;;19.60;99.90;;;;;;7373685;19;20014;-57
2023/08/08 10:01:20;;;;;;;3.83;1.33;;;20.40;99.90;;;;;;7374394;19;20034;-57
2023/08/08 10:03:47;;;;;;;5.25;1.00;;;21.00;99.90;;;;;;7376283;19;20082;-57
2023/08/08 10:06:15;;;;;;;3.05;1.13;;;21.00;99.90;;;;;;7372983;19;20318;-58
2023/08/08 10:08:42;;;;;;;2.78;1.02;;;20.40;99.90;;;;;;7374043;19;20438;-57
2023/08/08 10:11:11;;;;;;;3.65;1.45;;;19.50;99.90;;;;;;7372607;19;20010;-63
2023/08/08 10:13:46;;;;;;;3.40;0.85;;;19.30;99.90;;;;;;7373436;19;20022;-63
2023/08/08 10:16:16;;;;;;;4.47;1.15;;;19.50;99.90;;;;;;7372290;19;20500;-64
2023/08/08 10:18:42;;;;;;;6.53;1.13;;;20.20;99.90;;;;;;7373556;19;20374;-63
2023/08/08 10:21:10;;;;;;;4.18;1.33;;;20.30;99.90;;;;;;7373055;19;20098;-63
2023/08/08 10:23:37;;;;;;;3.55;1.00;;;20.30;99.90;;;;;;7372709;19;20053;-63
2023/08/08 10:26:03;;;;;;;4.13;0.90;;;20.60;99.90;;;;;;7375285;19;20026;-61
2023/08/08 10:28:34;;;;;;;3.65;1.10;;;20.90;99.90;;;;;;7370868;19;20074;-61
2023/08/08 10:31:08;;;;;;;5.15;1.20;;;20.70;99.90;;;;;;7371127;19;20010;-63
2023/08/08 10:33:45;;;;;;;4.97;1.02;;;20.60;99.90;;;;;;7372439;19;20029;-63
2023/08/08 10:36:13;;;;;;;4.18;0.88;;;19.90;99.90;;;;;;7370931;19;20014;-63
2023/08/08 10:38:46;;;;;;;4.47;1.33;;;19.50;99.90;;;;;;7374097;19;20351;-63
2023/08/08 10:41:20;;;;;;;4.50;1.08;;;19.50;99.90;;;;;;7371709;19;20014;-62
2023/08/08 10:43:48;;;;;;;4.93;1.30;;;20.10;99.90;;;;;;7371910;19;20378;-61
2023/08/08 10:46:26;;;;;;;4.47;1.40;;;20.50;99.90;;;;;;7374617;19;20018;-61
2023/08/08 10:49:05;;;;;;;4.60;1.02;;;20.30;99.90;;;;;;7372896;19;20017;-57
2023/08/08 10:51:38;;;;;;;4.60;1.15;;;20.00;99.90;;;;;;7371269;19;20025;-61
2023/08/08 10:54:13;;;;;;;4.88;1.30;;;19.60;99.90;;;;;;7377141;19;20054;-56
2023/08/08 10:56:41;;;;;;;6.63;1.40;;;19.70;99.90;;;;;;7375327;19;20501;-57
2023/08/08 10:59:39;;;;;;;5.18;1.10;;;19.60;99.90;;;;;;7374615;19;20046;-57
2023/08/08 11:02:05;;;;;;;4.28;1.60;;;19.50;99.90;;;;;;7372525;19;20018;-60
2023/08/08 11:04:33;;;;;;;2.58;0.88;;;19.30;99.90;;;;;;7374073;19;20021;-57
2023/08/08 11:06:59;;;;;;;5.43;1.75;;;19.10;99.90;;;;;;7375112;19;20052;-58
2023/08/08 11:09:26;;;;;;;4.18;1.17;;;19.00;99.90;;;;;;7370728;19;20501;-58
2023/08/08 11:11:52;;;;;;;4.50;1.23;;;19.20;99.90;;;;;;7371911;19;20022;-58
2023/08/08 11:14:21;;;;;;;7.43;4.03;;;19.90;99.90;;;;;;7366808;19;20014;-58
2023/08/08 11:16:49;;;;;;;8.07;4.35;;;20.50;99.90;;;;;;7370751;19;20034;-59
2023/08/08 11:19:16;;;;;;;3.42;1.10;;;21.20;99.90;;;;;;7368956;19;20023;-58
2023/08/08 11:21:44;;;;;;;6.75;1.50;;;20.90;99.90;;;;;;7369971;19;20894;-58
2023/08/08 11:24:11;;;;;;;3.88;1.15;;;20.50;99.90;;;;;;7368695;19;20473;-58
2023/08/08 11:26:40;;;;;;;7.90;1.30;;;20.40;99.90;;;;;;7371728;19;20387;-58
2023/08/08 11:29:07;;;;;;;4.35;1.17;;;20.90;99.90;;;;;;7369813;19;20022;-58
2023/08/08 11:31:35;;;;;;;3.75;1.25;;;21.60;99.90;;;;;;7369346;19;20468;-57
2023/08/08 11:34:02;;;;;;;3.47;1.20;;;21.90;99.90;;;;;;7371358;19;20478;-58
2023/08/08 11:36:33;;;;;;;6.32;0.90;;;22.10;99.90;;;;;;7370014;19;20018;-58
2023/08/08 11:39:10;;;;;;;6.07;0.95;;;22.10;99.90;;;;;;7372024;19;20584;-58
2023/08/08 11:41:37;;;;;;;4.07;1.00;;;22.00;99.90;;;;;;7370111;19;20034;-57
2023/08/08 11:44:04;;;;;;;4.20;1.40;;;21.00;99.90;;;;;;7371859;19;20090;-57
2023/08/08 11:46:31;;;;;;;3.30;1.25;;;20.70;99.90;;;;;;7370865;19;20018;-58
2023/08/08 11:49:06;;;;;;;3.13;1.05;;;20.70;99.90;;;;;;7373473;19;20349;-57
2023/08/08 11:51:34;;;;;;;5.20;1.30;;;21.40;99.90;;;;;;7377030;19;20014;-59
2023/08/08 11:54:03;;;;;;;7.85;1.23;;;21.60;99.90;;;;;;7380040;19;20015;-59
2023/08/08 11:56:29;;;;;;;4.03;0.85;;;21.60;99.90;;;;;;7378896;19;20023;-63
2023/08/08 11:58:55;;;;;;;5.30;1.20;;;21.70;99.90;;;;;;7378358;19;20022;-58
2023/08/08 12:01:26;;;;;;;5.35;1.40;;;21.70;99.90;;;;;;7376133;19;20796;-61
2023/08/08 12:03:53;;;;;;;4.90;1.05;;;22.10;99.90;;;;;;7380264;19;20025;-58
2023/08/08 12:06:20;;;;;;;6.47;1.40;;;22.30;97.60;;;;;;7378525;19;20018;-62
2023/08/08 12:08:47;;;;;;;5.30;1.25;;;22.10;97.10;;;;;;7378455;19;20015;-62
2023/08/08 12:11:15;;;;;;;5.93;1.10;;;22.70;97.30;;;;;;7373972;19;20053;-57
2023/08/08 12:13:44;;;;;;;5.45;1.30;;;22.40;96.70;;;;;;7381159;19;20380;-58
2023/08/08 12:16:13;;;;;;;3.97;1.10;;;22.50;97.20;;;;;;7376856;19;20022;-62
2023/08/08 12:18:40;;;;;;;5.25;1.00;;;22.70;96.00;;;;;;7378197;19;20958;-62
2023/08/08 12:21:08;;;;;;;4.30;1.17;;;22.60;92.90;;;;;;7375026;19;20482;-62
2023/08/08 12:23:35;;;;;;;3.10;1.30;;;22.90;92.30;;;;;;7379784;19;20450;-63
2023/08/08 12:26:07;;;;;;;3.10;1.00;;;22.90;90.10;;;;;;7376350;19;20034;-63
2023/08/08 12:28:33;;;;;;;3.83;1.00;;;23.30;88.60;;;;;;7375814;19;20015;-62
2023/08/08 12:31:00;;;;;;;5.53;1.20;;;23.60;90.20;;;;;;7377819;19;20025;-66
2023/08/08 12:33:27;;;;;;;5.15;1.02;;;24.00;85.60;;;;;;7376757;19;20600;-62
2023/08/08 12:35:54;;;;;;;4.25;1.08;;;23.50;82.70;;;;;;7377717;19;20018;-62
2023/08/08 12:38:22;;;;;;;3.90;0.95;;;23.90;83.00;;;;;;7376565;19;20494;-58
2023/08/08 12:40:49;;;;;;;3.40;0.98;;;23.60;80.90;;;;;;7378338;19;20028;-59
2023/08/08 12:43:35;;;;;;;2.92;1.13;;;24.10;81.50;;;;;;7376804;19;20141;-58
2023/08/08 12:46:01;;;;;;;3.17;1.00;;;23.90;78.80;;;;;;7376879;19;20646;-62
2023/08/08 12:48:28;;;;;;;4.80;1.13;;;23.60;78.40;;;;;;7374635;19;20018;-62